Time;durP1;ratioP1;P1;durP2;ratioP2;P2;SDS_P1;SDS_P2;PMS_P1;PMS_P2;Temp;Humidity;BMP_temperature;BMP_pressure;BME280_temperature;BME280_humidity;BME280_pressure;Samples;Min_cycle;Max_cycle;Signal;HPM_P1;HPM_P2
2023/03/07 00:00:49;;;;;;;13.53;6.67;;;;;;;-3.57;100.00;99335.03;5035226;28;20486;-81
2023/03/07 00:03:17;;;;;;;14.33;7.77;;;;;;;-3.58;100.00;99333.28;5038770;28;20047;-79
2023/03/07 00:05:43;;;;;;;18.80;8.83;;;;;;;-3.57;100.00;99330.72;5053704;28;20071;-78
2023/03/07 00:08:11;;;;;;;14.50;7.83;;;;;;;-3.56;100.00;99337.63;5024254;28;20402;-79
2023/03/07 00:10:38;;;;;;;14.33;7.27;;;;;;;-3.59;100.00;99332.44;5039515;28;20036;-80
2023/03/07 00:13:05;;;;;;;21.27;10.07;;;;;;;-3.57;100.00;99328.16;5046839;28;20041;-78
2023/03/07 00:15:31;;;;;;;15.60;8.20;;;;;;;-3.55;100.00;99320.41;5056022;28;20042;-78
2023/03/07 00:17:58;;;;;;;16.47;7.50;;;;;;;-3.52;100.00;99313.59;5053538;28;20032;-78
2023/03/07 00:20:25;;;;;;;15.53;7.90;;;;;;;-3.50;100.00;99313.63;5053760;28;20642;-78
2023/03/07 00:22:52;;;;;;;17.20;8.13;;;;;;;-3.49;100.00;99317.94;5020503;28;20091;-77
2023/03/07 00:25:18;;;;;;;16.83;9.43;;;;;;;-3.50;100.00;99314.47;5073870;28;20401;-77
2023/03/07 00:27:45;;;;;;;19.33;8.60;;;;;;;-3.50;100.00;99313.63;5034043;28;20059;-78
2023/03/07 00:30:13;;;;;;;16.10;8.60;;;;;;;-3.52;100.00;99307.56;5036996;28;20771;-77
2023/03/07 00:32:39;;;;;;;16.57;9.73;;;;;;;-3.49;100.00;99312.78;5036081;28;20044;-77
2023/03/07 00:35:07;;;;;;;16.53;8.80;;;;;;;-3.47;100.00;99309.34;5037956;28;20052;-77
2023/03/07 00:37:33;;;;;;;18.90;9.07;;;;;;;-3.47;100.00;99304.19;5027306;28;20044;-77
2023/03/07 00:40:00;;;;;;;18.43;9.47;;;;;;;-3.46;100.00;99297.31;5042187;28;20033;-78
2023/03/07 00:42:26;;;;;;;19.63;9.30;;;;;;;-3.48;100.00;99281.81;5021293;28;20068;-78
2023/03/07 00:44:53;;;;;;;18.67;8.63;;;;;;;-3.46;100.00;99284.41;5025686;28;20099;-78
2023/03/07 00:47:20;;;;;;;17.63;9.73;;;;;;;-3.47;100.00;99274.94;5044668;28;20055;-78
2023/03/07 00:49:49;;;;;;;17.80;9.07;;;;;;;-3.49;100.00;99262.00;5044411;28;20096;-78
2023/03/07 00:52:19;;;;;;;19.17;8.60;;;;;;;-3.48;100.00;99252.53;5056487;28;20071;-77
2023/03/07 00:54:46;;;;;;;21.07;10.30;;;;;;;-3.42;100.00;99248.34;5065333;28;20517;-77
2023/03/07 00:57:14;;;;;;;18.43;9.80;;;;;;;-3.43;100.00;99241.44;5032299;28;20037;-78
2023/03/07 00:59:41;;;;;;;15.57;8.57;;;;;;;-3.41;100.00;99237.16;5046829;28;20033;-77
2023/03/07 01:02:11;;;;;;;16.37;9.63;;;;;;;-3.41;100.00;99223.38;5026948;28;20063;-80
2023/03/07 01:04:37;;;;;;;15.80;8.83;;;;;;;-3.34;100.00;99224.31;5030928;28;20045;-78
2023/03/07 01:07:04;;;;;;;21.37;9.33;;;;;;;-3.31;100.00;99219.19;5124468;23;20037;-86
2023/03/07 01:09:31;;;;;;;23.27;9.83;;;;;;;-2.93;100.00;99210.16;5054611;28;20072;-82
2023/03/07 01:11:58;;;;;;;19.13;9.73;;;;;;;-2.81;100.00;99206.81;5056820;28;20053;-84
2023/03/07 01:14:24;;;;;;;19.10;9.90;;;;;;;-2.78;100.00;99193.91;5044095;28;20090;-84
2023/03/07 01:16:51;;;;;;;25.10;11.00;;;;;;;-2.58;100.00;99192.38;5052941;28;20052;-85
2023/03/07 01:19:18;;;;;;;21.37;12.03;;;;;;;-2.53;100.00;99187.22;5044574;28;20036;-84
2023/03/07 01:21:44;;;;;;;20.97;10.27;;;;;;;-2.41;100.00;99177.00;5044159;28;20052;-87
2023/03/07 01:24:13;;;;;;;25.43;12.07;;;;;;;-2.46;100.00;99172.63;5033138;28;20040;-85
2023/03/07 01:26:40;;;;;;;22.63;11.93;;;;;;;-2.42;100.00;99174.41;5035643;28;20044;-85
2023/03/07 01:29:07;;;;;;;27.47;13.57;;;;;;;-2.31;100.00;99165.00;5077553;28;20089;-86
2023/03/07 01:31:34;;;;;;;31.17;13.23;;;;;;;-2.18;100.00;99163.38;5035694;28;20431;-85
2023/03/07 01:34:01;;;;;;;27.07;12.47;;;;;;;-2.20;100.00;99160.75;5059774;28;20048;-87
2023/03/07 01:36:31;;;;;;;28.60;12.17;;;;;;;-2.15;100.00;99156.50;5030424;28;20052;-85
2023/03/07 01:39:05;;;;;;;27.90;13.77;;;;;;;-2.14;100.00;99141.84;5059423;28;20036;-86
2023/03/07 01:41:33;;;;;;;29.45;14.00;;;;;;;-2.04;100.00;99139.28;5042721;28;20067;-85
2023/03/07 01:44:04;;;;;;;25.70;13.60;;;;;;;-2.03;100.00;99133.25;5058027;28;20044;-84
2023/03/07 01:46:43;;;;;;;24.93;12.33;;;;;;;-1.96;100.00;99129.00;5059063;28;20047;-84
2023/03/07 01:49:15;;;;;;;26.97;13.43;;;;;;;-1.86;100.00;99116.94;5038100;28;20052;-85
2023/03/07 01:51:45;;;;;;;27.17;13.27;;;;;;;-1.88;100.00;99116.94;5064263;28;20048;-86
2023/03/07 01:54:15;;;;;;;23.77;12.90;;;;;;;-1.90;100.00;99113.50;5060759;28;20044;-86
2023/03/07 01:56:42;;;;;;;28.67;14.60;;;;;;;-1.78;100.00;99107.50;5057398;28;20094;-86
2023/03/07 01:59:10;;;;;;;23.23;12.03;;;;;;;-1.86;100.00;99098.84;5039311;28;20040;-84
2023/03/07 02:01:37;;;;;;;27.97;13.13;;;;;;;-1.75;100.00;99086.81;5053510;28;20048;-86
2023/03/07 02:04:35;;;;;;;27.00;14.50;;;;;;;-1.82;100.00;99070.41;5045537;28;20055;-87
2023/03/07 02:07:02;;;;;;;23.30;12.60;;;;;;;-1.86;100.00;99066.06;5046038;28;20044;-87
2023/03/07 02:09:30;;;;;;;26.43;11.97;;;;;;;-1.84;100.00;99061.78;5044616;28;20082;-85
2023/03/07 02:11:58;;;;;;;28.00;12.17;;;;;;;-1.79;100.00;99056.59;5059668;28;20036;-85
2023/03/07 02:14:24;;;;;;;25.90;12.60;;;;;;;-1.92;100.00;99053.09;5046024;28;20055;-86
2023/03/07 02:16:51;;;;;;;22.90;13.03;;;;;;;-1.93;100.00;99040.13;5026339;28;20045;-85
2023/03/07 02:19:36;;;;;;;25.97;13.67;;;;;;;-1.85;100.00;99038.44;5069075;28;20043;-86
2023/03/07 02:22:10;;;;;;;25.80;13.30;;;;;;;-1.89;100.00;99031.53;5062306;28;20040;-84
2023/03/07 02:24:52;;;;;;;25.52;12.25;;;;;;;-1.88;100.00;99018.59;5076635;28;20040;-85
2023/03/07 02:27:19;;;;;;;26.37;12.37;;;;;;;-1.90;100.00;99019.47;5041322;28;20405;-86
2023/03/07 02:29:46;;;;;;;23.80;12.07;;;;;;;-1.83;100.00;99006.53;5044181;28;20465;-84
2023/03/07 02:32:13;;;;;;;26.63;13.13;;;;;;;-1.83;100.00;99009.13;5040547;28;20063;-87
2023/03/07 02:34:39;;;;;;;27.57;13.77;;;;;;;-1.76;100.00;98997.94;5044237;28;20044;-85
2023/03/07 02:37:10;;;;;;;23.77;13.90;;;;;;;-1.71;100.00;98992.75;5051629;28;20048;-88
2023/03/07 02:39:40;;;;;;;28.53;14.37;;;;;;;-1.66;100.00;98987.59;5056922;28;20048;-88
2023/03/07 02:42:10;;;;;;;31.33;14.40;;;;;;;-1.68;100.00;98976.34;5075884;28;20032;-88
2023/03/07 02:44:36;;;;;;;29.27;14.17;;;;;;;-1.67;100.00;98967.75;5074675;28;20044;-88
2023/03/07 02:47:07;;;;;;;25.17;13.87;;;;;;;-1.74;100.00;98970.31;5039600;28;20048;-86
2023/03/07 02:49:35;;;;;;;27.93;14.07;;;;;;;-1.62;100.00;98966.00;5040250;28;20033;-85
2023/03/07 02:52:02;;;;;;;26.27;14.10;;;;;;;-1.62;100.00;98958.25;5060002;28;20051;-87
2023/03/07 02:54:28;;;;;;;28.63;13.90;;;;;;;-1.52;100.00;98947.88;5056350;28;20031;-86
2023/03/07 02:56:55;;;;;;;30.83;13.77;;;;;;;-1.61;100.00;98941.84;5044243;28;20044;-88
2023/03/07 02:59:22;;;;;;;32.27;13.53;;;;;;;-1.60;100.00;98934.06;5063208;28;20500;-85
2023/03/07 03:01:48;;;;;;;27.73;14.77;;;;;;;-1.47;100.00;98932.38;5041106;28;20055;-86
2023/03/07 03:04:15;;;;;;;32.27;14.80;;;;;;;-1.50;100.00;98928.06;5073530;28;20480;-88
2023/03/07 03:06:42;;;;;;;33.90;14.07;;;;;;;-1.43;100.00;98921.13;5070892;28;20480;-85
2023/03/07 03:09:08;;;;;;;28.40;13.73;;;;;;;-1.41;100.00;98914.25;5058474;28;20032;-84
2023/03/07 03:11:35;;;;;;;31.57;15.63;;;;;;;-1.42;100.00;98909.94;5041497;28;20058;-87
2023/03/07 03:14:02;;;;;;;30.23;15.03;;;;;;;-1.36;100.00;98909.91;5044138;28;20040;-87
2023/03/07 03:16:29;;;;;;;32.20;14.93;;;;;;;-1.28;100.00;98897.81;5052421;28;20037;-85
2023/03/07 03:18:56;;;;;;;35.07;14.10;;;;;;;-1.35;100.00;98896.06;5045066;28;20127;-87
2023/03/07 03:21:22;;;;;;;33.87;17.70;;;;;;;-1.29;100.00;98882.25;5058757;28;20036;-84
2023/03/07 03:23:49;;;;;;;34.07;15.20;;;;;;;-1.32;100.00;98875.38;5044247;28;20036;-86
2023/03/07 03:26:19;;;;;;;29.00;15.10;;;;;;;-1.30;100.00;98876.22;5077654;28;20594;-86
2023/03/07 03:28:53;;;;;;;35.17;15.37;;;;;;;-1.33;100.00;98858.09;5046435;28;20044;-86
2023/03/07 03:31:19;;;;;;;38.17;16.73;;;;;;;-1.25;100.00;98856.38;5056404;28;20135;-85
2023/03/07 03:33:48;;;;;;;36.17;16.87;;;;;;;-1.11;100.00;98847.69;5053040;28;20127;-85
2023/03/07 03:36:15;;;;;;;34.60;16.47;;;;;;;-1.12;100.00;98836.44;5054460;28;20047;-86
2023/03/07 03:38:44;;;;;;;31.43;16.53;;;;;;;-1.21;100.00;98834.75;5038749;28;20414;-86
2023/03/07 03:41:14;;;;;;;34.90;16.40;;;;;;;-1.17;100.00;98822.66;5043610;28;20547;-87
2023/03/07 03:43:41;;;;;;;33.13;15.80;;;;;;;-1.11;100.00;98826.94;5055747;28;20044;-87
2023/03/07 03:46:08;;;;;;;42.57;17.60;;;;;;;-1.06;100.00;98822.63;5043719;28;20070;-86
2023/03/07 03:48:35;;;;;;;36.77;16.90;;;;;;;-1.07;100.00;98810.53;5045873;28;20036;-87
2023/03/07 03:51:07;;;;;;;37.37;17.17;;;;;;;-1.02;100.00;98798.41;5059441;28;20037;-86
2023/03/07 03:53:35;;;;;;;37.47;17.27;;;;;;;-0.93;100.00;98798.38;5078306;28;20040;-86
2023/03/07 03:56:14;;;;;;;34.83;16.33;;;;;;;-1.00;100.00;98796.69;5066567;28;20439;-86
2023/03/07 03:58:40;;;;;;;35.53;16.97;;;;;;;-0.99;100.00;98790.63;5061343;28;20074;-86
2023/03/07 04:01:09;;;;;;;40.87;17.00;;;;;;;-0.89;100.00;98789.72;5045374;28;20032;-86
2023/03/07 04:03:43;;;;;;;39.70;16.40;;;;;;;-0.95;100.00;98785.41;5045156;28;20044;-86
2023/03/07 04:06:20;;;;;;;34.67;16.83;;;;;;;-0.88;100.00;98765.53;5045109;28;20156;-88
2023/03/07 04:08:50;;;;;;;37.10;17.83;;;;;;;-0.95;100.00;98766.41;5047368;28;20104;-86
2023/03/07 04:11:18;;;;;;;37.83;16.80;;;;;;;-0.97;100.00;98765.56;5060875;28;20032;-87
2023/03/07 04:13:44;;;;;;;41.53;17.33;;;;;;;-0.86;100.00;98754.25;5048665;28;20047;-85
2023/03/07 04:16:12;;;;;;;40.97;19.77;;;;;;;-0.80;100.00;98750.78;5050697;28;20032;-88
2023/03/07 04:18:39;;;;;;;38.23;18.60;;;;;;;-0.85;100.00;98742.16;5059060;28;20048;-87
2023/03/07 04:21:06;;;;;;;44.63;20.83;;;;;;;-0.77;100.00;98742.97;5042805;28;20040;-88
2023/03/07 04:23:33;;;;;;;43.77;18.90;;;;;;;-0.73;100.00;98747.28;5059931;28;20037;-86
2023/03/07 04:26:02;;;;;;;42.33;17.90;;;;;;;-0.78;100.00;98730.03;5058519;28;20057;-86
2023/03/07 04:28:43;;;;;;;41.20;18.93;;;;;;;-0.62;100.00;98731.66;5052187;28;20078;-85
2023/03/07 04:31:12;;;;;;;46.43;18.87;;;;;;;-0.60;100.00;98725.59;5040468;28;20040;-88
2023/03/07 04:33:39;;;;;;;39.47;19.83;;;;;;;-0.56;100.00;98721.25;5043210;28;21434;-85
2023/03/07 04:36:06;;;;;;;48.50;21.47;;;;;;;-0.52;100.00;98716.91;5056866;28;20040;-86
2023/03/07 04:38:32;;;;;;;47.37;21.07;;;;;;;-0.55;100.00;98706.56;5060610;28;20032;-85
2023/03/07 04:40:59;;;;;;;42.97;19.10;;;;;;;-0.50;100.00;98707.38;5033700;28;20066;-85
2023/03/07 04:43:26;;;;;;;42.83;20.87;;;;;;;-0.54;100.00;98687.53;5060160;28;20047;-87
2023/03/07 04:45:53;;;;;;;49.30;23.17;;;;;;;-0.52;100.00;98689.22;5061905;28;20138;-88
2023/03/07 04:48:19;;;;;;;46.03;21.33;;;;;;;-0.45;100.00;98675.34;5075230;28;20036;-87
2023/03/07 04:50:51;;;;;;;47.20;19.63;;;;;;;-0.43;100.00;98676.19;5058314;28;20035;-87
2023/03/07 04:53:18;;;;;;;45.47;20.33;;;;;;;-0.47;100.00;98661.53;5056330;28;20044;-85
2023/03/07 04:55:47;;;;;;;43.27;20.70;;;;;;;-0.43;100.00;98659.75;5053087;28;20041;-86
2023/03/07 04:58:14;;;;;;;43.93;21.03;;;;;;;-0.39;100.00;98645.91;5038919;28;20477;-86
2023/03/07 05:00:41;;;;;;;44.00;20.27;;;;;;;-0.37;100.00;98637.22;5070548;28;20036;-87
2023/03/07 05:03:11;;;;;;;49.00;20.37;;;;;;;-0.32;100.00;98638.06;5058809;28;20085;-85
2023/03/07 05:05:38;;;;;;;50.57;22.60;;;;;;;-0.31;100.00;98631.13;5042143;28;20493;-87
2023/03/07 05:08:05;;;;;;;48.03;19.57;;;;;;;-0.25;100.00;98625.88;5072926;28;20582;-86
2023/03/07 05:10:46;;;;;;;49.90;22.57;;;;;;;-0.25;100.00;98609.44;5058629;28;20134;-84
2023/03/07 05:13:13;;;;;;;47.00;20.50;;;;;;;-0.32;100.00;98608.66;5055678;28;20044;-86
2023/03/07 05:15:39;;;;;;;45.73;19.97;;;;;;;-0.16;100.00;98604.16;5038116;28;20048;-84
2023/03/07 05:18:06;;;;;;;43.03;19.97;;;;;;;-0.20;100.00;98602.47;5041619;28;20556;-84
2023/03/07 05:20:33;;;;;;;53.27;22.27;;;;;;;-0.12;100.00;98595.47;5038614;28;20090;-88
2023/03/07 05:23:00;;;;;;;43.73;20.33;;;;;;;-0.12;100.00;98598.06;5057731;28;20044;-83
2023/03/07 05:25:27;;;;;;;48.50;20.53;;;;;;;-0.05;100.00;98587.59;5055329;28;20036;-84
2023/03/07 05:27:54;;;;;;;42.40;21.23;;;;;;;-0.07;100.00;98581.56;5057157;28;20153;-84
2023/03/07 05:30:21;;;;;;;43.23;20.73;;;;;;;-0.01;100.00;98578.03;5056007;28;20040;-86
2023/03/07 05:32:50;;;;;;;41.47;19.73;;;;;;;-0.04;100.00;98576.34;5033346;28;20516;-85
2023/03/07 05:35:16;;;;;;;48.63;20.20;;;;;;;-0.03;100.00;98578.03;5038530;28;20507;-83
2023/03/07 05:37:43;;;;;;;38.50;18.87;;;;;;;-0.01;100.00;98572.84;5038926;28;20044;-83
2023/03/07 05:40:11;;;;;;;39.47;19.70;;;;;;;0.05;100.00;98564.13;5041023;28;20040;-84
2023/03/07 05:42:38;;;;;;;38.70;18.53;;;;;;;0.08;100.00;98562.34;5046075;28;20044;-86
2023/03/07 05:45:05;;;;;;;39.60;18.37;;;;;;;0.09;100.00;98565.81;5048521;28;20060;-84
2023/03/07 05:47:32;;;;;;;36.67;17.50;;;;;;;0.12;100.00;98557.97;5055767;28;20131;-84
2023/03/07 05:49:59;;;;;;;36.53;16.43;;;;;;;0.04;100.00;98555.47;5073687;28;20036;-83
2023/03/07 05:52:26;;;;;;;34.60;16.30;;;;;;;0.08;100.00;98557.16;5055594;28;20040;-84
2023/03/07 05:54:53;;;;;;;36.47;16.03;;;;;;;0.06;100.00;98558.91;5027179;28;20459;-83
2023/03/07 05:57:21;;;;;;;37.73;16.67;;;;;;;0.16;100.00;98551.88;5051233;28;20044;-84
2023/03/07 05:59:47;;;;;;;36.53;16.13;;;;;;;0.07;100.00;98549.38;5065840;28;20089;-83
2023/03/07 06:02:14;;;;;;;31.40;15.67;;;;;;;0.14;100.00;98559.69;5055368;28;20086;-83
2023/03/07 06:04:41;;;;;;;27.33;14.27;;;;;;;0.15;100.00;98552.75;5074063;28;20048;-84
2023/03/07 06:07:07;;;;;;;30.63;14.53;;;;;;;0.16;100.00;98547.53;5032174;28;20123;-83
2023/03/07 06:09:34;;;;;;;32.77;14.77;;;;;;;0.14;100.00;98549.28;5057497;28;20489;-83
2023/03/07 06:12:01;;;;;;;31.67;13.90;;;;;;;0.16;100.00;98544.06;5071007;28;20032;-83
2023/03/07 06:14:29;;;;;;;27.63;13.60;;;;;;;0.20;100.00;98558.75;5058385;28;20035;-84
2023/03/07 06:16:56;;;;;;;30.87;15.17;;;;;;;0.17;100.00;98556.16;5055735;28;20055;-83
2023/03/07 06:19:22;;;;;;;26.77;12.90;;;;;;;0.20;100.00;98559.59;5083182;28;20043;-84
2023/03/07 06:21:49;;;;;;;29.33;13.67;;;;;;;0.17;100.00;98556.16;5036246;28;20101;-83
2023/03/07 06:24:16;;;;;;;27.17;13.80;;;;;;;0.21;100.00;98558.72;5037466;28;20037;-83
2023/03/07 06:26:42;;;;;;;26.83;12.30;;;;;;;0.23;100.00;98562.16;5043763;28;20047;-84
2023/03/07 06:29:09;;;;;;;26.30;12.93;;;;;;;0.24;100.00;98552.63;5041326;28;20036;-84
2023/03/07 06:31:36;;;;;;;26.60;13.00;;;;;;;0.24;100.00;98555.22;5055353;28;20622;-84
2023/03/07 06:34:02;;;;;;;31.50;13.30;;;;;;;0.27;100.00;98550.00;5066583;28;20067;-83
2023/03/07 06:36:29;;;;;;;26.57;13.33;;;;;;;0.27;100.00;98558.66;5036498;28;20047;-82
2023/03/07 06:38:56;;;;;;;26.57;13.33;;;;;;;0.26;100.00;98554.34;5053936;28;20044;-83
2023/03/07 06:41:22;;;;;;;29.47;13.03;;;;;;;0.27;100.00;98560.41;5058016;28;20036;-82
2023/03/07 06:43:51;;;;;;;25.63;12.07;;;;;;;0.30;100.00;98557.75;5053234;28;20040;-84
2023/03/07 06:46:19;;;;;;;28.03;13.23;;;;;;;0.28;100.00;98555.19;5053146;28;20055;-82
2023/03/07 06:48:46;;;;;;;30.00;13.00;;;;;;;0.27;100.00;98548.28;5057853;28;20048;-82
2023/03/07 06:51:12;;;;;;;26.10;12.63;;;;;;;0.23;100.00;98551.75;5056463;28;20067;-83
2023/03/07 06:53:40;;;;;;;31.77;14.30;;;;;;;0.34;100.00;98551.66;5054681;28;20481;-82
2023/03/07 06:56:06;;;;;;;25.90;12.87;;;;;;;0.40;100.00;98546.34;5070976;28;20044;-82
2023/03/07 06:58:33;;;;;;;26.00;12.83;;;;;;;0.43;100.00;98550.66;5038062;28;20496;-81
2023/03/07 07:01:00;;;;;;;28.47;14.73;;;;;;;0.48;100.00;98559.25;5057245;28;20032;-83
2023/03/07 07:03:26;;;;;;;34.10;15.67;;;;;;;0.50;100.00;98552.28;5058040;28;20051;-83
2023/03/07 07:05:53;;;;;;;29.93;14.40;;;;;;;0.52;100.00;98548.78;5040427;28;20040;-83
2023/03/07 07:08:20;;;;;;;28.97;13.63;;;;;;;0.50;100.00;98526.28;5124393;22;20044;-81
2023/03/07 07:10:46;;;;;;;30.03;14.60;;;;;;;0.61;100.00;98544.34;5035202;28;20124;-80
2023/03/07 07:13:13;;;;;;;24.80;12.80;;;;;;;0.66;100.00;98535.59;5036124;28;20055;-80
2023/03/07 07:15:40;;;;;;;25.83;11.87;;;;;;;0.63;100.00;98540.84;5052649;28;20055;-81
2023/03/07 07:18:10;;;;;;;25.47;12.90;;;;;;;0.68;100.00;98525.19;5033885;28;20404;-80
2023/03/07 07:20:37;;;;;;;28.27;12.97;;;;;;;0.74;100.00;98536.34;5035448;28;20067;-81
2023/03/07 07:23:04;;;;;;;24.63;13.20;;;;;;;0.76;100.00;98541.53;5022459;28;20040;-80
2023/03/07 07:25:30;;;;;;;25.90;13.63;;;;;;;0.81;100.00;98537.09;5048133;28;20060;-81
2023/03/07 07:27:57;;;;;;;24.37;12.77;;;;;;;0.86;100.00;98532.72;5039748;28;20493;-81
2023/03/07 07:30:24;;;;;;;29.17;12.63;;;;;;;0.87;100.00;98534.41;5019485;28;20036;-80
2023/03/07 07:32:51;;;;;;;27.73;12.60;;;;;;;0.90;100.00;98528.31;5033388;28;20447;-80
2023/03/07 07:35:18;;;;;;;23.73;12.17;;;;;;;0.90;100.00;98518.75;5041599;28;20511;-80
2023/03/07 07:37:44;;;;;;;25.77;12.87;;;;;;;0.95;100.00;98529.97;5025846;28;20094;-81
2023/03/07 07:40:12;;;;;;;26.87;13.13;;;;;;;0.89;100.00;98524.84;5026260;28;20161;-79
2023/03/07 07:42:39;;;;;;;26.67;12.73;;;;;;;0.94;100.00;98528.25;5025844;28;20446;-80
2023/03/07 07:45:06;;;;;;;23.70;12.47;;;;;;;0.99;100.00;98531.59;5025656;28;20090;-80
2023/03/07 07:47:33;;;;;;;22.50;12.20;;;;;;;0.99;100.00;98530.75;5040535;28;20490;-79
2023/03/07 07:49:59;;;;;;;24.63;11.07;;;;;;;0.97;100.00;98530.78;5038740;28;20033;-80
2023/03/07 07:52:26;;;;;;;24.27;11.83;;;;;;;0.99;100.00;98533.34;5030935;28;20094;-80
2023/03/07 07:54:53;;;;;;;21.80;11.93;;;;;;;0.99;100.00;98533.34;5022393;28;20041;-80
2023/03/07 07:57:20;;;;;;;26.30;12.07;;;;;;;1.01;100.00;98528.97;5039509;28;20120;-80
2023/03/07 07:59:48;;;;;;;23.20;11.93;;;;;;;1.03;100.00;98535.91;5037176;28;20064;-80
2023/03/07 08:02:15;;;;;;;24.43;12.00;;;;;;;1.04;100.00;98544.56;5044594;28;20051;-80
2023/03/07 08:04:41;;;;;;;24.53;12.27;;;;;;;1.07;100.00;98542.75;5028041;28;20044;-79
2023/03/07 08:07:08;;;;;;;25.00;11.83;;;;;;;1.12;100.00;98540.94;5023948;28;20124;-80
2023/03/07 08:09:35;;;;;;;23.13;11.33;;;;;;;1.25;100.00;98530.31;5040691;28;20402;-79
2023/03/07 08:12:02;;;;;;;21.17;10.93;;;;;;;1.35;100.00;98529.31;5056128;28;20033;-79
2023/03/07 08:14:32;;;;;;;21.70;11.93;;;;;;;1.45;100.00;98527.38;5029556;28;20045;-78
2023/03/07 08:16:59;;;;;;;22.67;10.90;;;;;;;1.48;100.00;98529.91;5021203;28;20520;-78
2023/03/07 08:19:26;;;;;;;22.93;11.27;;;;;;;1.52;100.00;98536.81;5038101;28;20044;-79
2023/03/07 08:21:53;;;;;;;23.93;11.23;;;;;;;1.64;100.00;98532.22;5048720;28;20032;-79
2023/03/07 08:24:20;;;;;;;20.80;11.07;;;;;;;1.69;100.00;98530.41;5024707;28;20045;-79
2023/03/07 08:27:00;;;;;;;21.67;11.17;;;;;;;1.81;100.00;98528.44;5029767;28;20482;-78
2023/03/07 08:29:27;;;;;;;23.97;12.37;;;;;;;1.93;100.00;98531.69;5032567;28;20047;-79
2023/03/07 08:31:54;;;;;;;21.90;11.37;;;;;;;2.03;100.00;98523.66;5026017;28;20036;-79
2023/03/07 08:34:21;;;;;;;21.80;10.77;;;;;;;2.09;100.00;98531.34;5029964;28;20096;-79
2023/03/07 08:36:47;;;;;;;20.13;9.77;;;;;;;2.16;100.00;98531.19;5037439;28;20037;-78
2023/03/07 08:39:14;;;;;;;18.07;9.10;;;;;;;2.32;100.00;98534.31;5041157;28;20075;-79
2023/03/07 08:41:41;;;;;;;16.83;8.93;;;;;;;2.33;100.00;98524.75;5045958;28;20067;-79
2023/03/07 08:44:08;;;;;;;16.43;9.30;;;;;;;2.39;100.00;98515.06;5044306;28;20045;-79
2023/03/07 08:46:35;;;;;;;16.60;8.40;;;;;;;2.53;100.00;98513.03;5040947;28;20044;-79
2023/03/07 08:49:02;;;;;;;16.17;8.93;;;;;;;2.63;100.00;98513.66;5041183;28;20082;-79
2023/03/07 08:51:28;;;;;;;15.43;8.30;;;;;;;2.61;100.00;98506.78;5058400;28;20036;-79
2023/03/07 08:53:56;;;;;;;14.67;8.07;;;;;;;2.63;100.00;98500.63;5038599;28;20044;-79
2023/03/07 08:56:23;;;;;;;13.70;7.07;;;;;;;2.75;100.00;98495.13;5019376;28;20033;-79
2023/03/07 08:58:53;;;;;;;15.27;8.07;;;;;;;2.81;100.00;98494.13;5035799;28;20040;-79
2023/03/07 09:01:20;;;;;;;12.43;6.83;;;;;;;2.90;100.00;98485.22;5040316;28;20047;-80
2023/03/07 09:03:47;;;;;;;13.60;6.50;;;;;;;2.96;100.00;98482.47;5035047;28;20040;-79
2023/03/07 09:06:19;;;;;;;14.93;6.63;;;;;;;3.06;100.00;98479.59;5044530;28;20047;-80
2023/03/07 09:08:49;;;;;;;11.53;6.70;;;;;;;3.15;100.00;98488.94;5028383;28;20036;-80
2023/03/07 09:11:16;;;;;;;10.73;5.93;;;;;;;3.24;100.00;98487.84;5026501;28;20041;-79
2023/03/07 09:13:43;;;;;;;13.07;6.37;;;;;;;3.35;100.00;98488.41;5029486;28;20044;-80
2023/03/07 09:16:19;;;;;;;10.87;5.83;;;;;;;3.42;100.00;98489.13;5034457;28;20040;-80
2023/03/07 09:18:45;;;;;;;11.43;5.90;;;;;;;3.30;100.00;98480.72;5037565;28;20082;-80
2023/03/07 09:21:12;;;;;;;11.37;5.80;;;;;;;3.42;100.00;98471.69;5029672;28;20064;-81
2023/03/07 09:23:39;;;;;;;9.57;5.43;;;;;;;3.49;100.00;98506.34;5026866;28;20131;-80
2023/03/07 09:26:05;;;;;;;12.63;7.33;;;;;;;3.39;100.00;98498.75;5034925;28;20048;-80
2023/03/07 09:28:33;;;;;;;11.37;6.13;;;;;;;3.43;100.00;98494.28;5020105;28;20060;-80
2023/03/07 09:31:05;;;;;;;12.37;5.83;;;;;;;3.50;100.00;98505.44;5031977;28;20056;-80
2023/03/07 09:33:32;;;;;;;10.00;5.03;;;;;;;3.46;100.00;98503.81;5051729;28;20560;-80
2023/03/07 09:35:59;;;;;;;9.47;5.37;;;;;;;3.38;100.00;98504.88;5055577;28;20052;-81
2023/03/07 09:38:25;;;;;;;9.20;5.40;;;;;;;3.27;100.00;98509.47;5042494;28;20097;-80
2023/03/07 09:40:53;;;;;;;12.13;5.57;;;;;;;3.22;100.00;98502.69;5041712;28;20036;-81
2023/03/07 09:43:25;;;;;;;9.80;5.23;;;;;;;3.28;100.00;98506.00;5057847;28;20489;-80
2023/03/07 09:46:12;;;;;;;10.50;5.37;;;;;;;3.12;100.00;98512.50;5019188;28;20709;-80
2023/03/07 09:49:04;;;;;;;10.23;5.07;;;;;;;3.12;100.00;98515.13;5020979;28;20398;-81
2023/03/07 09:51:43;;;;;;;9.90;5.83;;;;;;;3.09;100.00;98507.34;5028596;28;20045;-80
2023/03/07 09:54:19;;;;;;;9.03;4.87;;;;;;;3.17;100.00;98505.41;5022769;28;20098;-80
2023/03/07 09:56:55;;;;;;;10.67;5.60;;;;;;;3.19;100.00;98514.03;5044159;28;20071;-79
2023/03/07 09:59:40;;;;;;;8.87;5.20;;;;;;;3.16;100.00;98513.28;5020855;28;20516;-79
2023/03/07 10:02:25;;;;;;;10.83;5.10;;;;;;;3.17;100.00;98531.50;5037191;28;20440;-80
2023/03/07 10:05:08;;;;;;;9.00;5.23;;;;;;;3.14;100.00;98510.72;5034383;28;20049;-79
2023/03/07 10:07:35;;;;;;;8.43;4.67;;;;;;;3.10;100.00;98502.09;5024055;28;20103;-81
2023/03/07 10:10:11;;;;;;;8.60;4.83;;;;;;;3.01;100.00;98507.53;5037390;28;20063;-80
2023/03/07 10:12:55;;;;;;;7.70;4.43;;;;;;;3.04;100.00;98501.41;5058047;28;20044;-80
2023/03/07 10:15:44;;;;;;;9.77;4.70;;;;;;;3.18;100.00;98511.47;5041463;28;20463;-79
2023/03/07 10:18:26;;;;;;;9.77;4.97;;;;;;;3.38;100.00;98504.00;5057827;28;20113;-79
2023/03/07 10:21:06;;;;;;;7.43;3.93;;;;;;;3.45;100.00;98500.34;5056490;28;20067;-79
2023/03/07 10:23:58;;;;;;;6.20;3.40;;;;;;;3.75;100.00;98497.78;5057353;28;20036;-79
2023/03/07 10:26:41;;;;;;;10.20;4.30;;;;;;;4.09;100.00;98511.63;5035751;28;20036;-80
2023/03/07 10:29:17;;;;;;;6.97;3.70;;;;;;;4.12;100.00;98490.66;5037638;28;20059;-81
2023/03/07 10:31:52;;;;;;;7.30;4.03;;;;;;;4.12;100.00;98493.25;5018667;28;20055;-81
2023/03/07 10:34:24;;;;;;;7.63;3.73;;;;;;;4.41;100.00;98492.38;5051308;28;20040;-81
2023/03/07 10:37:00;;;;;;;6.18;3.65;;;;;;;4.64;100.00;98494.31;5033533;28;20044;-81
2023/03/07 10:39:43;;;;;;;10.07;4.40;;;;;;;4.65;100.00;98490.78;5037841;28;20033;-82
2023/03/07 10:42:11;;;;;;;6.27;3.17;;;;;;;4.73;100.00;98488.78;5027082;28;20037;-81
2023/03/07 10:44:38;;;;;;;6.10;3.63;;;;;;;4.61;100.00;98488.28;5024941;28;20090;-81
2023/03/07 10:47:05;;;;;;;8.23;3.57;;;;;;;4.58;100.00;98483.16;5030256;28;20098;-82
2023/03/07 10:49:36;;;;;;;5.67;2.90;;;;;;;4.59;100.00;98482.25;5018346;28;20037;-80
2023/03/07 10:52:19;;;;;;;7.47;2.90;;;;;;;4.37;100.00;98490.78;5007985;28;20672;-80
2023/03/07 10:54:45;;;;;;;5.07;2.80;;;;;;;4.24;100.00;98485.03;5016861;28;20044;-82
2023/03/07 10:57:15;;;;;;;5.40;2.43;;;;;;;4.23;100.00;98487.72;5016034;28;20044;-80
2023/03/07 10:59:43;;;;;;;5.70;2.60;;;;;;;4.23;100.00;98475.50;5031646;28;20041;-79
2023/03/07 11:02:34;;;;;;;5.03;2.90;;;;;;;4.14;100.00;98477.53;5041582;28;20086;-82
2023/03/07 11:05:03;;;;;;;4.33;2.97;;;;;;;4.07;100.00;98479.47;5038734;28;20048;-80
2023/03/07 11:07:33;;;;;;;6.53;2.30;;;;;;;4.09;100.00;98466.34;5036304;28;20045;-83
2023/03/07 11:10:23;;;;;;;7.07;3.73;;;;;;;4.03;100.00;98472.59;5033249;28;20049;-84
2023/03/07 11:12:50;;;;;;;4.33;2.27;;;;;;;4.11;100.00;98469.75;5051142;28;20033;-82
2023/03/07 11:15:20;;;;;;;4.27;2.37;;;;;;;4.13;100.00;98470.59;5049045;28;20550;-82
2023/03/07 11:17:47;;;;;;;5.10;1.93;;;;;;;4.14;99.89;98462.72;5020162;28;20040;-81
2023/03/07 11:20:20;;;;;;;4.40;2.50;;;;;;;4.18;100.00;98463.47;5016918;28;20052;-84
2023/03/07 11:22:48;;;;;;;4.50;2.40;;;;;;;4.32;100.00;98463.06;5032706;28;20033;-82
2023/03/07 11:25:19;;;;;;;4.07;2.00;;;;;;;4.25;100.00;98454.53;5016952;28;20044;-83